Time;durP1;ratioP1;P1;durP2;ratioP2;P2;SDS_P1;SDS_P2;PMS_P1;PMS_P2;Temp;Humidity;BMP_temperature;BMP_pressure;BME280_temperature;BME280_humidity;BME280_pressure;Samples;Min_cycle;Max_cycle;Signal;HPM_P1;HPM_P2
2023/06/10 00:01:47;;;;;;;6.82;3.00;;;15.80;99.90;;;;;;5051387;28;20512;-85
2023/06/10 00:04:14;;;;;;;4.07;2.72;;;15.80;99.90;;;;;;5068434;28;20520;-85
2023/06/10 00:06:40;;;;;;;5.22;2.80;;;15.70;99.90;;;;;;5050327;28;20048;-85
2023/06/10 00:09:10;;;;;;;6.97;3.15;;;15.70;99.90;;;;;;5050146;28;21006;-85
2023/06/10 00:11:37;;;;;;;4.65;2.72;;;15.60;99.90;;;;;;5051613;28;20131;-85
2023/06/10 00:14:04;;;;;;;4.93;2.80;;;15.60;99.90;;;;;;5050503;28;20040;-85
2023/06/10 00:16:30;;;;;;;6.93;3.08;;;15.50;99.90;;;;;;5050471;28;20468;-85
2023/06/10 00:19:00;;;;;;;9.27;3.30;;;15.50;99.90;;;;;;5050819;28;20051;-85
2023/06/10 00:21:29;;;;;;;6.40;3.30;;;15.40;99.90;;;;;;5050673;28;20048;-86
2023/06/10 00:23:56;;;;;;;7.20;2.88;;;15.40;99.90;;;;;;5068393;28;20596;-85
2023/06/10 00:26:25;;;;;;;6.03;3.03;;;15.30;99.90;;;;;;5050396;28;20032;-83
2023/06/10 00:28:52;;;;;;;6.32;2.83;;;15.40;99.90;;;;;;5050367;28;20098;-83
2023/06/10 00:31:18;;;;;;;5.20;3.30;;;14.30;99.90;;;;;;5068671;28;20043;-84
2023/06/10 00:33:47;;;;;;;6.10;3.20;;;15.40;99.90;;;;;;5068395;28;20055;-84
2023/06/10 00:36:12;;;;;;;9.88;3.42;;;15.40;99.90;;;;;;5050611;28;20056;-84
2023/06/10 00:38:40;;;;;;;4.18;2.63;;;15.40;99.90;;;;;;5066478;28;20049;-84
2023/06/10 00:41:06;;;;;;;4.80;3.20;;;15.40;99.90;;;;;;5067274;28;20040;-85
2023/06/10 00:43:31;;;;;;;8.65;2.95;;;15.40;99.90;;;;;;5066091;28;20041;-84
2023/06/10 00:45:57;;;;;;;6.65;3.30;;;15.90;99.90;;;;;;5066458;28;20478;-84
2023/06/10 00:48:24;;;;;;;6.85;3.42;;;15.50;99.90;;;;;;5050123;28;20051;-84
2023/06/10 00:50:50;;;;;;;7.90;3.13;;;15.50;99.90;;;;;;5066479;28;20052;-85
2023/06/10 00:53:17;;;;;;;7.60;3.22;;;15.50;99.90;;;;;;5066737;28;20141;-84
2023/06/10 00:55:43;;;;;;;6.05;3.25;;;15.40;99.90;;;;;;5065889;28;20509;-84
2023/06/10 00:58:09;;;;;;;8.68;3.38;;;15.40;99.90;;;;;;5066917;28;20050;-85
2023/06/10 01:00:35;;;;;;;7.38;3.22;;;15.40;99.90;;;;;;5049571;28;20048;-86
2023/06/10 01:03:01;;;;;;;4.53;2.92;;;15.40;99.90;;;;;;5066055;28;20046;-85
2023/06/10 01:05:27;;;;;;;7.68;2.80;;;15.40;99.90;;;;;;5049261;28;20048;-86
2023/06/10 01:08:35;;;;;;;7.43;3.25;;;15.30;99.90;;;;;;5066539;28;20544;-86
2023/06/10 01:11:03;;;;;;;7.28;2.95;;;15.30;99.90;;;;;;5066178;28;20493;-85
2023/06/10 01:13:31;;;;;;;10.70;3.83;;;15.20;99.90;;;;;;5066134;28;20453;-85
2023/06/10 01:15:58;;;;;;;7.35;2.92;;;15.20;99.90;;;;;;5066122;28;20594;-85
2023/06/10 01:18:30;;;;;;;5.72;2.90;;;15.20;99.90;;;;;;5067234;28;20074;-85
2023/06/10 01:20:56;;;;;;;6.20;2.78;;;15.20;99.90;;;;;;5082913;28;20555;-85
2023/06/10 01:23:22;;;;;;;5.93;2.95;;;15.20;99.90;;;;;;5067832;28;20041;-85
2023/06/10 01:25:57;;;;;;;4.65;2.60;;;15.10;99.90;;;;;;5065914;28;20049;-85
2023/06/10 01:28:54;;;;;;;4.90;2.65;;;16.20;99.90;;;;;;5068440;28;20045;-85
2023/06/10 01:31:41;;;;;;;4.93;2.88;;;15.10;99.90;;;;;;5070877;28;20083;-86
2023/06/10 01:34:16;;;;;;;7.25;2.70;;;15.20;99.90;;;;;;5054406;28;20044;-86
2023/06/10 01:36:47;;;;;;;9.40;3.20;;;15.00;99.90;;;;;;5070737;28;20048;-85
2023/06/10 01:39:18;;;;;;;6.70;2.60;;;14.90;99.90;;;;;;5067467;28;20041;-86
2023/06/10 01:41:44;;;;;;;5.85;2.42;;;15.00;99.90;;;;;;5069524;28;20041;-87
2023/06/10 01:44:10;;;;;;;6.18;2.53;;;14.90;99.90;;;;;;5068699;28;20048;-86
2023/06/10 01:46:36;;;;;;;5.88;3.05;;;14.90;99.90;;;;;;5069099;28;20045;-85
2023/06/10 01:49:02;;;;;;;6.95;2.80;;;14.80;99.90;;;;;;5055940;28;20053;-85
2023/06/10 01:51:28;;;;;;;4.80;2.90;;;14.80;99.90;;;;;;5054257;28;20045;-87
2023/06/10 01:53:54;;;;;;;8.52;2.90;;;15.70;99.90;;;;;;5069675;28;20048;-85
2023/06/10 01:56:20;;;;;;;4.18;2.65;;;14.70;99.90;;;;;;5068131;28;20059;-85
2023/06/10 01:58:46;;;;;;;4.80;2.17;;;14.70;99.90;;;;;;5067552;28;20080;-85
2023/06/10 02:01:12;;;;;;;8.23;2.45;;;14.60;99.90;;;;;;5067531;28;20040;-85
2023/06/10 02:03:38;;;;;;;6.72;2.75;;;14.60;99.90;;;;;;5067328;28;20045;-85
2023/06/10 02:06:04;;;;;;;5.15;3.05;;;14.50;99.90;;;;;;5068099;28;20113;-84
2023/06/10 02:08:29;;;;;;;4.50;2.53;;;14.50;99.90;;;;;;5051682;28;20037;-86
2023/06/10 02:10:55;;;;;;;4.93;2.13;;;14.40;99.90;;;;;;5069952;28;20036;-85
2023/06/10 02:13:21;;;;;;;4.93;2.85;;;14.30;99.90;;;;;;5052025;28;20048;-86
2023/06/10 02:15:47;;;;;;;6.88;3.05;;;14.20;99.90;;;;;;5035608;28;20052;-85
2023/06/10 02:18:12;;;;;;;6.20;3.28;;;14.20;99.90;;;;;;5069104;28;20101;-85
2023/06/10 02:20:38;;;;;;;6.25;3.20;;;14.10;99.90;;;;;;5051998;28;20126;-85
2023/06/10 02:23:06;;;;;;;6.40;3.60;;;14.00;99.90;;;;;;5070002;28;20072;-86
2023/06/10 02:25:32;;;;;;;4.93;2.80;;;14.00;99.90;;;;;;5033757;28;20040;-85
2023/06/10 02:27:58;;;;;;;6.25;2.70;;;13.90;99.90;;;;;;5032831;28;20043;-86
2023/06/10 02:30:26;;;;;;;9.70;3.70;;;13.90;99.90;;;;;;5049526;28;20076;-86
2023/06/10 02:32:52;;;;;;;5.25;2.90;;;13.80;99.90;;;;;;5049453;28;20060;-86
2023/06/10 02:35:18;;;;;;;6.18;2.92;;;13.80;99.90;;;;;;5048895;28;20410;-85
2023/06/10 02:37:44;;;;;;;7.00;3.67;;;13.70;99.90;;;;;;5048624;28;20080;-86
2023/06/10 02:40:10;;;;;;;4.40;2.97;;;13.60;99.90;;;;;;5065179;28;20062;-86
2023/06/10 02:42:36;;;;;;;5.78;2.97;;;13.60;99.90;;;;;;5066075;28;20447;-85
2023/06/10 02:45:02;;;;;;;5.20;2.72;;;12.40;99.90;;;;;;5064670;28;20040;-85
2023/06/10 02:47:28;;;;;;;5.03;2.85;;;13.50;99.90;;;;;;5048365;28;20337;-86
2023/06/10 02:49:54;;;;;;;5.32;2.72;;;13.40;99.90;;;;;;5047740;28;20044;-85
2023/06/10 02:52:20;;;;;;;5.35;2.95;;;13.40;99.90;;;;;;5066202;28;20044;-86
2023/06/10 02:54:46;;;;;;;5.03;2.80;;;13.30;99.90;;;;;;5064361;28;20060;-86
2023/06/10 02:57:14;;;;;;;8.13;3.40;;;13.30;99.90;;;;;;5065250;28;20515;-84
2023/06/10 02:59:40;;;;;;;5.25;3.25;;;13.20;99.90;;;;;;5047594;28;20160;-85
2023/06/10 03:02:06;;;;;;;6.28;3.25;;;13.10;99.90;;;;;;5047623;28;20041;-85
2023/06/10 03:04:32;;;;;;;5.07;3.17;;;13.10;99.90;;;;;;5047666;28;20037;-86
2023/06/10 03:07:00;;;;;;;5.63;2.70;;;13.10;99.90;;;;;;5051445;28;20044;-86
2023/06/10 03:09:26;;;;;;;6.85;2.55;;;13.10;99.90;;;;;;5069293;28;20056;-85
2023/06/10 03:11:52;;;;;;;7.50;2.92;;;13.00;99.90;;;;;;5068108;28;20426;-87
2023/06/10 03:14:17;;;;;;;6.72;3.30;;;13.00;99.90;;;;;;5069902;28;20087;-86
2023/06/10 03:16:45;;;;;;;7.82;3.20;;;13.00;99.90;;;;;;5069497;28;20043;-86
2023/06/10 03:19:11;;;;;;;6.65;2.90;;;12.90;99.90;;;;;;5052109;28;20048;-85
2023/06/10 03:21:37;;;;;;;7.85;3.25;;;12.90;99.90;;;;;;5067862;28;20420;-87
2023/06/10 03:24:03;;;;;;;8.73;3.38;;;12.90;99.90;;;;;;5051282;28;20093;-85
2023/06/10 03:26:29;;;;;;;5.97;2.88;;;13.00;99.90;;;;;;5067715;28;20128;-85
2023/06/10 03:28:55;;;;;;;9.70;3.85;;;12.90;99.90;;;;;;5051279;28;20170;-85
2023/06/10 03:31:20;;;;;;;7.07;3.28;;;13.00;99.90;;;;;;5051325;28;20485;-85
2023/06/10 03:33:46;;;;;;;7.28;3.53;;;13.00;99.90;;;;;;5067822;28;20060;-85
2023/06/10 03:36:12;;;;;;;8.23;4.22;;;13.00;99.90;;;;;;5069543;28;20045;-85
2023/06/10 03:38:38;;;;;;;5.22;3.15;;;13.00;99.90;;;;;;5035754;28;20199;-85
2023/06/10 03:41:04;;;;;;;6.47;3.30;;;13.00;99.90;;;;;;5053749;28;20370;-84
2023/06/10 03:43:31;;;;;;;10.32;3.50;;;13.00;99.90;;;;;;5071797;28;20552;-85
2023/06/10 03:45:56;;;;;;;10.00;3.70;;;13.00;99.90;;;;;;5068541;28;20162;-86
2023/06/10 03:48:22;;;;;;;9.32;3.75;;;13.00;99.90;;;;;;5050315;28;20154;-85
2023/06/10 03:50:50;;;;;;;6.40;3.10;;;13.00;99.90;;;;;;5067453;28;20041;-85
2023/06/10 03:53:16;;;;;;;7.55;3.72;;;13.00;99.90;;;;;;5068027;28;20493;-86
2023/06/10 03:55:43;;;;;;;8.77;3.58;;;13.00;99.90;;;;;;5067588;28;20091;-85
2023/06/10 03:58:08;;;;;;;11.10;3.65;;;13.10;99.90;;;;;;5066735;28;20048;-85
2023/06/10 04:00:41;;;;;;;7.03;3.55;;;13.10;99.90;;;;;;5067928;28;20481;-84
2023/06/10 04:03:14;;;;;;;9.43;4.00;;;13.10;99.90;;;;;;5066499;28;20517;-85
2023/06/10 04:05:41;;;;;;;9.52;4.32;;;13.10;99.90;;;;;;5066090;28;20047;-86
2023/06/10 04:08:07;;;;;;;8.88;3.72;;;13.10;99.90;;;;;;5066295;28;20052;-85
2023/06/10 04:10:33;;;;;;;7.32;3.92;;;13.20;99.90;;;;;;5049966;28;20514;-85
2023/06/10 04:12:59;;;;;;;10.13;3.95;;;13.20;99.90;;;;;;5067457;28;20112;-84
2023/06/10 04:15:25;;;;;;;7.55;3.92;;;13.20;99.90;;;;;;5049670;28;20131;-84
2023/06/10 04:17:51;;;;;;;11.32;4.20;;;13.20;99.90;;;;;;5065358;28;20187;-84
2023/06/10 04:20:17;;;;;;;6.68;3.75;;;13.30;99.90;;;;;;5067673;28;20117;-84
2023/06/10 04:22:42;;;;;;;7.60;4.30;;;13.30;99.90;;;;;;5049710;28;20540;-84
2023/06/10 04:25:09;;;;;;;8.15;3.92;;;13.30;99.90;;;;;;5049088;28;20477;-84
2023/06/10 04:27:35;;;;;;;9.18;4.00;;;13.30;99.90;;;;;;5066688;28;20795;-84
2023/06/10 04:30:03;;;;;;;13.63;4.35;;;13.40;99.90;;;;;;5049216;28;20052;-84
2023/06/10 04:32:29;;;;;;;8.82;4.55;;;13.40;99.90;;;;;;5066249;28;20062;-84
2023/06/10 04:34:55;;;;;;;7.82;3.53;;;13.50;99.90;;;;;;5032761;28;20463;-84
2023/06/10 04:37:20;;;;;;;8.13;4.05;;;13.50;99.90;;;;;;5048917;28;20122;-84
2023/06/10 04:39:46;;;;;;;6.95;3.97;;;13.60;99.90;;;;;;5048692;28;20049;-84
2023/06/10 04:42:12;;;;;;;12.73;4.72;;;13.70;99.90;;;;;;5065525;28;20047;-84
2023/06/10 04:44:38;;;;;;;5.88;3.78;;;13.70;99.90;;;;;;5066825;28;20044;-84
2023/06/10 04:47:04;;;;;;;10.10;4.20;;;13.80;99.90;;;;;;5066204;28;20401;-85
2023/06/10 04:49:31;;;;;;;10.90;4.07;;;13.90;99.90;;;;;;5065453;28;20036;-83
2023/06/10 04:51:58;;;;;;;8.93;4.10;;;14.00;99.90;;;;;;5048919;28;20489;-84
2023/06/10 04:54:23;;;;;;;6.88;3.97;;;14.10;99.90;;;;;;5066356;28;20562;-83
2023/06/10 04:56:49;;;;;;;11.38;4.38;;;14.20;99.90;;;;;;5031783;28;20056;-83
2023/06/10 04:59:15;;;;;;;7.82;3.78;;;14.30;99.90;;;;;;5048595;28;20057;-84
2023/06/10 05:01:40;;;;;;;12.93;4.28;;;14.40;99.90;;;;;;5065196;28;20044;-84
2023/06/10 05:04:06;;;;;;;9.15;4.07;;;14.50;99.90;;;;;;5065548;28;20401;-84
2023/06/10 05:06:32;;;;;;;9.52;4.30;;;14.60;99.90;;;;;;5065937;28;20052;-83
2023/06/10 05:08:57;;;;;;;14.57;4.53;;;14.70;99.90;;;;;;5048738;28;20044;-84
2023/06/10 05:11:23;;;;;;;8.52;4.78;;;14.70;99.90;;;;;;5064554;28;20048;-83
2023/06/10 05:13:49;;;;;;;10.27;3.67;;;14.80;99.90;;;;;;5048111;28;20048;-84
2023/06/10 05:16:15;;;;;;;11.68;4.00;;;15.00;99.90;;;;;;5066559;28;20045;-85
2023/06/10 05:18:40;;;;;;;10.90;4.15;;;15.00;99.90;;;;;;5064578;28;20123;-85
2023/06/10 05:21:07;;;;;;;9.15;4.15;;;15.10;99.90;;;;;;5066388;28;20052;-85
2023/06/10 05:23:33;;;;;;;8.48;3.97;;;15.10;99.90;;;;;;5064085;28;20066;-84
2023/06/10 05:25:59;;;;;;;5.82;3.60;;;15.10;99.90;;;;;;5066338;28;20040;-85
2023/06/10 05:28:25;;;;;;;9.65;4.18;;;15.20;99.90;;;;;;5048085;28;20127;-84
2023/06/10 05:30:51;;;;;;;8.20;4.00;;;15.30;99.90;;;;;;5047967;28;20102;-85
2023/06/10 05:33:17;;;;;;;9.02;3.60;;;15.40;99.90;;;;;;5065677;28;20052;-85
2023/06/10 05:35:43;;;;;;;8.80;3.53;;;15.40;99.90;;;;;;5064348;28;20047;-83
2023/06/10 05:38:08;;;;;;;9.75;3.78;;;15.50;99.90;;;;;;5065880;28;20044;-81
2023/06/10 05:40:34;;;;;;;8.38;3.90;;;15.60;99.90;;;;;;5047610;28;20064;-83
2023/06/10 05:43:00;;;;;;;7.78;4.38;;;15.60;99.90;;;;;;5064726;28;20068;-82
2023/06/10 05:45:27;;;;;;;13.63;4.22;;;15.60;99.90;;;;;;5063656;28;20036;-83
2023/06/10 05:47:53;;;;;;;8.75;3.55;;;15.70;99.90;;;;;;5064254;28;20047;-82
2023/06/10 05:50:19;;;;;;;10.10;4.57;;;15.70;99.90;;;;;;5064149;28;20409;-83
2023/06/10 05:52:44;;;;;;;7.13;3.90;;;15.80;99.90;;;;;;5063616;28;20141;-82
2023/06/10 05:55:10;;;;;;;10.88;3.75;;;15.80;99.90;;;;;;5047548;28;20126;-86
2023/06/10 05:57:36;;;;;;;6.95;3.60;;;15.90;99.90;;;;;;5064515;28;20205;-86
2023/06/10 06:00:03;;;;;;;9.52;4.97;;;15.90;99.90;;;;;;5047675;28;20046;-86
2023/06/10 06:02:29;;;;;;;7.22;3.67;;;15.90;99.90;;;;;;5064164;28;20046;-85
2023/06/10 06:04:54;;;;;;;7.30;3.10;;;16.00;99.90;;;;;;5064492;28;20120;-88
2023/06/10 06:07:20;;;;;;;9.95;3.78;;;16.10;99.90;;;;;;5048185;28;20041;-94
2023/06/10 06:09:47;;;;;;;10.95;3.88;;;16.20;99.90;;;;;;5031062;28;20374;-88
2023/06/10 06:12:12;;;;;;;9.55;3.72;;;16.20;99.90;;;;;;5064026;28;20056;-85
2023/06/10 06:14:40;;;;;;;8.05;3.75;;;16.20;99.90;;;;;;5047511;28;20064;-89
2023/06/10 06:17:06;;;;;;;7.43;3.53;;;16.30;99.90;;;;;;5047572;28;20076;-87
2023/06/10 06:19:32;;;;;;;8.63;3.95;;;16.40;99.90;;;;;;5063344;28;20051;-86
2023/06/10 06:21:58;;;;;;;7.80;3.65;;;16.50;99.90;;;;;;5064522;28;20040;-87
2023/06/10 06:24:23;;;;;;;5.75;3.20;;;16.60;99.90;;;;;;5063600;28;20040;-83
2023/06/10 06:26:49;;;;;;;6.22;3.45;;;16.70;99.90;;;;;;5063707;28;20124;-84
2023/06/10 06:29:15;;;;;;;9.43;3.78;;;16.80;99.90;;;;;;5064547;28;20120;-85
2023/06/10 06:31:40;;;;;;;6.90;3.58;;;16.80;99.90;;;;;;5064321;28;20481;-84
2023/06/10 06:34:06;;;;;;;5.90;3.05;;;16.90;99.90;;;;;;5063898;28;20056;-87
2023/06/10 06:36:32;;;;;;;8.23;3.38;;;16.90;99.90;;;;;;5063810;28;20067;-88
2023/06/10 06:38:58;;;;;;;13.05;4.20;;;17.00;99.90;;;;;;5063850;28;20048;-88
2023/06/10 06:41:27;;;;;;;6.20;3.40;;;17.00;99.90;;;;;;5046485;28;20048;-85
2023/06/10 06:43:54;;;;;;;7.85;3.20;;;17.20;99.90;;;;;;5063399;28;20519;-83
2023/06/10 06:46:21;;;;;;;7.75;3.15;;;17.30;99.90;;;;;;5065263;28;20038;-87
2023/06/10 06:48:47;;;;;;;5.32;3.00;;;17.40;99.90;;;;;;5047016;28;20084;-91
2023/06/10 06:51:13;;;;;;;7.80;3.65;;;17.50;99.90;;;;;;5031099;28;20149;-89
2023/06/10 06:53:44;;;;;;;8.02;3.42;;;17.60;99.90;;;;;;5046260;28;20139;-90
2023/06/10 06:56:10;;;;;;;5.88;2.95;;;17.70;99.90;;;;;;5047357;28;20493;-90
2023/06/10 06:58:36;;;;;;;7.72;3.60;;;17.80;99.90;;;;;;5046488;28;20536;-86
2023/06/10 07:01:02;;;;;;;5.00;2.90;;;17.90;99.90;;;;;;5063251;28;20143;-88
2023/06/10 07:03:28;;;;;;;6.07;3.58;;;17.90;99.90;;;;;;5030492;28;20051;-90
2023/06/10 07:05:53;;;;;;;6.63;3.42;;;18.00;99.90;;;;;;5030648;28;20049;-90
2023/06/10 07:08:19;;;;;;;6.25;3.42;;;18.10;99.90;;;;;;5031016;28;20040;-90
2023/06/10 07:10:45;;;;;;;6.20;2.88;;;18.30;99.90;;;;;;5047289;28;20044;-92
2023/06/10 07:13:11;;;;;;;11.45;3.55;;;18.30;99.90;;;;;;5049005;28;20127;-88
2023/06/10 07:15:38;;;;;;;8.23;3.17;;;18.40;99.90;;;;;;5049369;28;20393;-90
2023/06/10 07:18:04;;;;;;;5.03;3.30;;;18.50;99.90;;;;;;5036212;28;20052;-87
2023/06/10 07:20:29;;;;;;;7.35;3.20;;;18.60;99.90;;;;;;5053984;28;20036;-88
2023/06/10 07:22:55;;;;;;;5.53;3.03;;;18.70;99.90;;;;;;5053173;28;20048;-86
2023/06/10 07:25:21;;;;;;;5.95;2.88;;;18.80;99.90;;;;;;5070529;28;20068;-86
2023/06/10 07:27:47;;;;;;;5.82;2.60;;;18.90;99.90;;;;;;5068935;28;20040;-85
2023/06/10 07:30:13;;;;;;;7.10;2.60;;;18.90;99.90;;;;;;5033848;28;20037;-82
2023/06/10 07:32:39;;;;;;;5.68;2.70;;;19.00;99.90;;;;;;5063740;28;20523;-86
2023/06/10 07:35:08;;;;;;;6.15;3.13;;;19.00;99.90;;;;;;5066258;28;20131;-87
2023/06/10 07:37:36;;;;;;;8.45;2.67;;;19.10;99.90;;;;;;5069958;28;20083;-85
2023/06/10 07:40:02;;;;;;;4.93;2.85;;;19.20;99.90;;;;;;5052015;28;20054;-86
2023/06/10 07:42:28;;;;;;;4.65;2.97;;;19.30;99.90;;;;;;5052621;28;20048;-84
2023/06/10 07:44:54;;;;;;;8.13;2.83;;;19.30;99.90;;;;;;5066501;28;20044;-90
2023/06/10 07:47:20;;;;;;;5.10;2.35;;;19.40;99.90;;;;;;5050373;28;20041;-87
2023/06/10 07:49:45;;;;;;;6.20;2.58;;;19.50;99.90;;;;;;5030468;28;20044;-85
2023/06/10 07:52:11;;;;;;;6.43;2.35;;;19.60;99.90;;;;;;5064194;28;20050;-82
2023/06/10 07:54:37;;;;;;;7.60;2.83;;;19.70;99.90;;;;;;5065797;28;20068;-85
2023/06/10 07:57:03;;;;;;;5.85;2.45;;;19.80;99.90;;;;;;5050236;28;20055;-86
2023/06/10 07:59:29;;;;;;;7.18;2.97;;;19.80;99.90;;;;;;5065927;28;20048;-84
2023/06/10 08:01:54;;;;;;;4.68;2.45;;;19.90;99.90;;;;;;5066181;28;20093;-84
2023/06/10 08:04:22;;;;;;;6.60;3.08;;;19.90;99.90;;;;;;5068204;28;20036;-85
2023/06/10 08:06:48;;;;;;;4.15;2.15;;;20.00;99.90;;;;;;5048764;28;20052;-84
2023/06/10 08:09:14;;;;;;;5.70;2.70;;;20.10;99.90;;;;;;5067074;28;20048;-85
2023/06/10 08:11:40;;;;;;;3.90;2.33;;;20.20;99.90;;;;;;5065912;28;20461;-85
2023/06/10 08:14:05;;;;;;;4.43;2.38;;;20.30;99.90;;;;;;5033091;28;20132;-86
2023/06/10 08:16:31;;;;;;;4.28;2.10;;;20.50;99.90;;;;;;5065953;28;20048;-86
2023/06/10 08:18:57;;;;;;;7.30;2.30;;;20.50;99.90;;;;;;5067366;28;20045;-87
2023/06/10 08:21:23;;;;;;;4.57;2.30;;;20.50;99.90;;;;;;5066106;28;20056;-86
2023/06/10 08:23:53;;;;;;;5.13;2.30;;;20.60;99.90;;;;;;5065711;28;20045;-88
2023/06/10 08:26:19;;;;;;;8.90;2.97;;;20.70;99.90;;;;;;5049581;28;20044;-86
2023/06/10 08:28:45;;;;;;;6.43;2.25;;;20.80;99.90;;;;;;5049027;28;20056;-84
2023/06/10 08:31:11;;;;;;;6.32;2.97;;;20.90;99.90;;;;;;5049906;28;20489;-87
2023/06/10 08:33:36;;;;;;;4.95;2.38;;;20.90;99.90;;;;;;5048420;28;20532;-88
2023/06/10 08:36:05;;;;;;;6.45;2.05;;;20.90;99.90;;;;;;5065952;28;20037;-87
2023/06/10 08:38:31;;;;;;;4.18;2.50;;;20.40;99.90;;;;;;5049046;28;20579;-88
2023/06/10 08:41:00;;;;;;;4.63;2.35;;;21.20;99.90;;;;;;5032897;28;20135;-91
2023/06/10 08:43:40;;;;;;;4.32;2.38;;;21.30;99.90;;;;;;5033100;28;20040;-86
2023/06/10 08:46:09;;;;;;;6.03;1.73;;;21.30;99.90;;;;;;5065893;28;20055;-87
2023/06/10 08:48:39;;;;;;;5.70;2.50;;;21.30;99.90;;;;;;5066171;28;20130;-86
2023/06/10 08:51:05;;;;;;;3.40;1.92;;;21.40;99.90;;;;;;5048694;28;20048;-86
2023/06/10 08:53:36;;;;;;;6.75;2.30;;;21.50;99.90;;;;;;5065623;28;20588;-85
2023/06/10 08:56:05;;;;;;;6.75;2.97;;;21.60;99.90;;;;;;5065516;28;20056;-87
2023/06/10 08:58:41;;;;;;;5.55;2.42;;;21.70;99.90;;;;;;5063660;28;20056;-87
2023/06/10 09:01:08;;;;;;;6.13;2.42;;;21.80;99.90;;;;;;5064050;28;20051;-88
2023/06/10 09:03:38;;;;;;;3.88;1.90;;;21.90;99.90;;;;;;5046501;28;20509;-86
2023/06/10 09:06:06;;;;;;;7.65;2.22;;;22.00;99.90;;;;;;5047723;28;20044;-86
2023/06/10 09:08:34;;;;;;;5.47;2.40;;;22.10;99.90;;;;;;5030262;28;20076;-88
2023/06/10 09:11:00;;;;;;;4.75;2.40;;;22.20;99.90;;;;;;5063343;28;20044;-87
2023/06/10 09:13:26;;;;;;;4.85;2.00;;;22.30;99.90;;;;;;5063985;28;20095;-87
2023/06/10 09:15:52;;;;;;;3.67;2.20;;;21.30;99.90;;;;;;5046076;28;20083;-87
2023/06/10 09:18:17;;;;;;;4.75;2.13;;;22.50;99.90;;;;;;5048486;28;20044;-86
2023/06/10 09:20:43;;;;;;;4.60;2.22;;;22.60;99.90;;;;;;5064799;28;20124;-88
2023/06/10 09:23:09;;;;;;;4.95;2.10;;;22.80;99.90;;;;;;5047549;28;20046;-87
2023/06/10 09:25:39;;;;;;;7.65;2.95;;;22.90;99.90;;;;;;5029818;28;20135;-87
2023/06/10 09:28:12;;;;;;;5.68;2.17;;;23.00;99.90;;;;;;5064295;28;20048;-87
2023/06/10 09:30:37;;;;;;;4.13;1.98;;;23.00;99.90;;;;;;5063688;28;20187;-87
2023/06/10 09:33:10;;;;;;;5.57;2.05;;;23.10;99.90;;;;;;5045870;28;20167;-87
2023/06/10 09:35:44;;;;;;;4.25;1.88;;;23.10;99.90;;;;;;5047243;28;20033;-88
2023/06/10 09:38:10;;;;;;;6.43;2.22;;;23.20;99.90;;;;;;5046169;28;20048;-87
2023/06/10 09:40:52;;;;;;;5.35;2.00;;;23.40;99.90;;;;;;5064085;28;20127;-87
2023/06/10 09:43:19;;;;;;;6.00;2.95;;;23.50;99.90;;;;;;5046369;28;20045;-87
2023/06/10 09:45:47;;;;;;;5.97;2.38;;;23.60;99.90;;;;;;5046203;28;20504;-87
2023/06/10 09:48:12;;;;;;;3.60;1.85;;;23.70;99.90;;;;;;5046716;28;20079;-87
2023/06/10 09:50:43;;;;;;;4.28;2.13;;;23.80;99.90;;;;;;5045789;28;20053;-88
2023/06/10 09:53:10;;;;;;;5.20;2.13;;;23.90;99.70;;;;;;5063367;28;20048;-87
2023/06/10 09:55:38;;;;;;;3.95;2.78;;;24.00;99.50;;;;;;5029060;28;20048;-87
2023/06/10 09:58:04;;;;;;;5.38;2.03;;;24.00;99.30;;;;;;5047013;28;20040;-85
2023/06/10 10:00:33;;;;;;;3.85;2.17;;;24.10;99.30;;;;;;5045922;28;20059;-85
2023/06/10 10:02:59;;;;;;;6.25;2.13;;;24.10;98.30;;;;;;5046307;28;20569;-88
2023/06/10 10:05:25;;;;;;;5.82;2.20;;;24.20;98.50;;;;;;5063651;28;20044;-88
2023/06/10 10:07:52;;;;;;;4.13;1.98;;;24.20;98.30;;;;;;5046456;28;20044;-87
2023/06/10 10:10:20;;;;;;;4.55;2.13;;;24.30;98.40;;;;;;5063599;28;20053;-87
2023/06/10 10:12:53;;;;;;;6.88;2.22;;;24.60;97.40;;;;;;5046816;28;20076;-88
2023/06/10 10:15:21;;;;;;;4.40;2.17;;;24.60;97.80;;;;;;5045817;28;20133;-88
2023/06/10 10:18:06;;;;;;;8.18;2.72;;;24.80;97.40;;;;;;5062801;28;20293;-86
2023/06/10 10:20:34;;;;;;;5.20;2.33;;;24.80;96.60;;;;;;5062628;28;20044;-87
2023/06/10 10:23:03;;;;;;;4.43;2.50;;;24.90;96.70;;;;;;5047078;28;20087;-86
2023/06/10 10:25:41;;;;;;;4.68;2.53;;;25.00;96.60;;;;;;5045941;28;20362;-86
2023/06/10 10:28:06;;;;;;;4.63;1.95;;;24.10;96.40;;;;;;5063716;28;20044;-87
2023/06/10 10:30:49;;;;;;;5.43;2.40;;;25.30;96.20;;;;;;5064452;28;20539;-87
2023/06/10 10:33:36;;;;;;;5.65;2.30;;;25.10;94.90;;;;;;5067667;28;20490;-88
2023/06/10 10:36:03;;;;;;;7.07;2.70;;;25.60;94.50;;;;;;5050369;28;20059;-87
2023/06/10 10:38:29;;;;;;;4.55;1.88;;;25.50;94.90;;;;;;5066394;28;20048;-86
2023/06/10 10:40:59;;;;;;;4.38;2.55;;;25.40;94.20;;;;;;5049385;28;20048;-86
2023/06/10 10:43:26;;;;;;;3.70;2.03;;;25.50;94.00;;;;;;5065408;28;20489;-86
2023/06/10 10:46:03;;;;;;;8.02;2.42;;;25.60;93.70;;;;;;5048831;28;20148;-86
2023/06/10 10:48:39;;;;;;;4.53;2.53;;;25.70;92.90;;;;;;5066979;28;20405;-86
2023/06/10 10:51:05;;;;;;;6.50;2.53;;;25.80;92.00;;;;;;5048557;28;20051;-86
2023/06/10 10:53:31;;;;;;;4.95;1.98;;;25.90;93.00;;;;;;5032768;28;20044;-87
2023/06/10 10:56:08;;;;;;;3.50;2.20;;;26.00;92.70;;;;;;5048083;28;20059;-85
2023/06/10 10:58:34;;;;;;;4.57;2.30;;;26.10;92.50;;;;;;5067932;28;20044;-88
2023/06/10 11:01:13;;;;;;;4.53;2.47;;;26.20;92.90;;;;;;5066099;28;20045;-86
2023/06/10 11:03:46;;;;;;;4.07;2.22;;;26.40;91.40;;;;;;5031225;28;20117;-86
2023/06/10 11:06:15;;;;;;;5.47;2.30;;;26.40;90.70;;;;;;5048256;28;20045;-86
2023/06/10 11:08:40;;;;;;;3.05;1.90;;;25.40;90.10;;;;;;5064363;28;20534;-85
2023/06/10 11:11:26;;;;;;;3.67;2.40;;;26.50;90.30;;;;;;5066294;28;20276;-85
2023/06/10 11:14:04;;;;;;;3.58;1.85;;;26.50;87.90;;;;;;5047203;28;20051;-85
2023/06/10 11:16:30;;;;;;;5.40;1.58;;;26.60;88.00;;;;;;5047014;28;20049;-87
2023/06/10 11:18:56;;;;;;;4.07;2.08;;;26.60;87.10;;;;;;5047937;28;20600;-87
2023/06/10 11:21:25;;;;;;;7.18;2.08;;;26.70;87.50;;;;;;5030779;28;20045;-87
2023/06/10 11:23:51;;;;;;;3.78;2.20;;;25.70;88.10;;;;;;5048879;28;20319;-87
2023/06/10 11:26:31;;;;;;;5.38;2.78;;;26.90;88.60;;;;;;5050589;28;20044;-87
2023/06/10 11:28:57;;;;;;;4.10;2.40;;;27.10;87.90;;;;;;5071092;28;20048;-87
2023/06/10 11:31:24;;;;;;;4.10;2.15;;;27.20;87.60;;;;;;5054864;28;20563;-86
2023/06/10 11:34:05;;;;;;;8.02;1.90;;;27.30;86.80;;;;;;5054234;28;20052;-87
2023/06/10 11:36:31;;;;;;;3.28;1.92;;;27.40;85.60;;;;;;5055873;28;20045;-86
2023/06/10 11:39:04;;;;;;;6.20;2.38;;;26.70;85.60;;;;;;5071205;28;20105;-87
2023/06/10 11:41:30;;;;;;;;;;;27.60;86.90;;;;;;5055066;28;20045;-90
2023/06/10 11:44:00;;;;;;;2.97;1.88;;;27.70;85.10;;;;;;5055727;28;20165;-89
2023/06/10 11:46:27;;;;;;;5.13;2.55;;;27.70;86.50;;;;;;5072107;28;20086;-91
2023/06/10 11:48:55;;;;;;;5.35;2.00;;;27.80;85.90;;;;;;5054438;28;20036;-87
2023/06/10 11:51:21;;;;;;;2.95;1.77;;;27.80;85.40;;;;;;5070277;28;20460;-87
2023/06/10 11:53:48;;;;;;;5.53;1.98;;;27.90;85.90;;;;;;5065965;28;20516;-86
2023/06/10 11:56:23;;;;;;;2.63;1.77;;;27.90;84.80;;;;;;5049700;28;20044;-85
2023/06/10 11:59:07;;;;;;;5.68;2.15;;;27.60;83.20;;;;;;5068216;28;20040;-85
2023/06/10 12:01:43;;;;;;;4.45;2.05;;;28.00;81.80;;;;;;5067634;28;20041;-85
2023/06/10 12:04:11;;;;;;;3.00;1.80;;;28.00;80.30;;;;;;5068518;28;20049;-89
2023/06/10 12:06:48;;;;;;;2.97;1.85;;;27.90;80.30;;;;;;5068789;28;20127;-91
2023/06/10 12:09:22;;;;;;;3.97;2.30;;;28.00;79.10;;;;;;5052131;28;20055;-86
2023/06/10 12:11:52;;;;;;;3.45;2.00;;;28.10;79.30;;;;;;5068346;28;20084;-89
2023/06/10 12:14:53;;;;;;;4.32;2.03;;;28.20;80.10;;;;;;5052211;28;20539;-89
2023/06/10 12:17:23;;;;;;;4.10;1.85;;;28.20;77.20;;;;;;5069432;28;20045;-88
2023/06/10 12:19:50;;;;;;;8.85;2.78;;;28.20;79.00;;;;;;5051979;28;20055;-89
2023/06/10 12:22:16;;;;;;;3.08;1.92;;;28.30;79.90;;;;;;5069637;28;20079;-88
2023/06/10 12:25:03;;;;;;;4.45;2.10;;;28.30;80.30;;;;;;5069218;28;20041;-83
2023/06/10 12:27:30;;;;;;;4.75;1.70;;;28.40;80.00;;;;;;5034395;28;20045;-84
2023/06/10 12:30:04;;;;;;;4.53;2.20;;;28.50;80.50;;;;;;5065209;28;20542;-85
2023/06/10 12:32:39;;;;;;;3.63;1.70;;;28.40;80.50;;;;;;5066326;28;20048;-85
2023/06/10 12:35:06;;;;;;;3.85;1.85;;;28.40;80.60;;;;;;5064296;28;20056;-85
2023/06/10 12:37:34;;;;;;;4.95;2.00;;;28.40;82.20;;;;;;5046644;28;20052;-83
2023/06/10 12:40:06;;;;;;;8.52;1.95;;;28.50;81.80;;;;;;5065393;28;20041;-83
2023/06/10 12:42:34;;;;;;;4.20;2.40;;;28.40;80.80;;;;;;5065377;28;20040;-82
2023/06/10 12:45:00;;;;;;;3.92;1.98;;;28.30;80.10;;;;;;5065875;28;20484;-83
2023/06/10 12:47:38;;;;;;;5.22;2.00;;;28.30;81.20;;;;;;5065628;28;20491;-83
2023/06/10 12:50:05;;;;;;;4.35;1.92;;;28.40;80.40;;;;;;5065443;28;20524;-85